Time;durP1;ratioP1;P1;durP2;ratioP2;P2;SDS_P1;SDS_P2;PMS_P1;PMS_P2;Temp;Humidity;BMP_temperature;BMP_pressure;BME280_temperature;BME280_humidity;BME280_pressure;Samples;Min_cycle;Max_cycle;Signal;HPM_P1;HPM_P2
2021/12/28 00:00:28;;;;;;;87.20;41.77;;;;;;;;;;5014017;28;20230;-88
2021/12/28 00:02:58;;;;;;;89.33;39.57;;;;;;;;;;5014797;28;20275;-87
2021/12/28 00:05:27;;;;;;;98.07;44.77;;;;;;;;;;5014410;28;20221;-88
2021/12/28 00:07:56;;;;;;;90.00;43.13;;;;;;;;;;5014630;28;20279;-88
2021/12/28 00:10:25;;;;;;;72.90;35.40;;;;;;;;;;5014654;28;20277;-87
2021/12/28 00:12:54;;;;;;;88.50;40.17;;;;;;;;;;5014375;28;20201;-88
2021/12/28 00:15:46;;;;;;;82.43;45.83;;;;;;;;;;5014371;28;20271;-88
2021/12/28 00:18:16;;;;;;;87.03;39.73;;;;;;;;;;5014578;28;20210;-88
2021/12/28 00:20:46;;;;;;;77.03;43.47;;;;;;;;;;5014672;28;20197;-88
2021/12/28 00:23:17;;;;;;;53.87;29.77;;;;;;;;;;5013948;28;20240;-88
2021/12/28 00:25:46;;;;;;;68.00;38.20;;;;;;;;;;5014499;28;20233;-88
2021/12/28 00:28:15;;;;;;;75.73;38.97;;;;;;;;;;5013403;28;20240;-88
2021/12/28 00:30:44;;;;;;;73.47;45.80;;;;;;;;;;5013418;28;20218;-88
2021/12/28 00:33:12;;;;;;;60.63;31.57;;;;;;;;;;5013493;28;20278;-88
2021/12/28 00:35:43;;;;;;;67.30;35.53;;;;;;;;;;5013166;28;20209;-87
2021/12/28 00:38:14;;;;;;;50.00;29.37;;;;;;;;;;5013642;28;20292;-88
2021/12/28 00:40:43;;;;;;;56.43;33.67;;;;;;;;;;5016938;28;20222;-88
2021/12/28 00:43:11;;;;;;;48.10;25.93;;;;;;;;;;5016564;28;20223;-88
2021/12/28 00:45:40;;;;;;;47.83;23.70;;;;;;;;;;5016443;28;20285;-88
2021/12/28 00:48:08;;;;;;;48.03;28.20;;;;;;;;;;5016951;28;20207;-84
2021/12/28 00:50:37;;;;;;;51.53;31.67;;;;;;;;;;5016786;28;20221;-88
2021/12/28 00:53:07;;;;;;;48.53;27.10;;;;;;;;;;5016418;28;20213;-88
2021/12/28 00:55:36;;;;;;;53.77;34.53;;;;;;;;;;5016305;28;20206;-88
2021/12/28 00:58:04;;;;;;;47.50;26.37;;;;;;;;;;5016650;28;20198;-88
2021/12/28 01:00:34;;;;;;;54.47;30.27;;;;;;;;;;5016684;28;20252;-87
2021/12/28 01:03:04;;;;;;;41.07;25.80;;;;;;;;;;5016616;28;20306;-88
2021/12/28 01:05:33;;;;;;;46.10;27.10;;;;;;;;;;5016197;28;20309;-88
2021/12/28 01:08:02;;;;;;;38.17;24.40;;;;;;;;;;5016709;28;20302;-87
2021/12/28 01:10:34;;;;;;;17.73;13.10;;;;;;;;;;5015752;28;20207;-88
2021/12/28 01:13:03;;;;;;;42.67;21.73;;;;;;;;;;5016705;28;20264;-88
2021/12/28 01:15:32;;;;;;;39.90;22.07;;;;;;;;;;5016060;28;20210;-88
2021/12/28 01:18:01;;;;;;;41.50;20.53;;;;;;;;;;5016199;28;20213;-87
2021/12/28 01:20:29;;;;;;;35.90;21.10;;;;;;;;;;5015921;28;20208;-87
2021/12/28 01:22:58;;;;;;;37.37;20.27;;;;;;;;;;5015810;28;20206;-89
2021/12/28 01:25:27;;;;;;;33.93;18.20;;;;;;;;;;5016073;28;20231;-88
2021/12/28 01:27:57;;;;;;;31.03;17.00;;;;;;;;;;4976971;28;1126678;-88
2021/12/28 01:30:26;;;;;;;38.13;21.00;;;;;;;;;;5016971;28;20294;-87
2021/12/28 01:32:57;;;;;;;36.37;21.50;;;;;;;;;;5017396;28;20201;-88
2021/12/28 01:35:25;;;;;;;29.93;17.87;;;;;;;;;;5017331;28;20204;-88
2021/12/28 01:37:54;;;;;;;32.23;18.00;;;;;;;;;;5017495;28;20213;-87
2021/12/28 01:40:24;;;;;;;17.63;14.73;;;;;;;;;;5016784;28;20271;-88
2021/12/28 01:42:58;;;;;;;25.47;16.10;;;;;;;;;;5017135;28;20205;-88
2021/12/28 01:45:44;;;;;;;34.43;18.90;;;;;;;;;;5016796;28;20226;-87
2021/12/28 01:48:14;;;;;;;28.73;17.20;;;;;;;;;;5017104;28;20212;-88
2021/12/28 01:50:42;;;;;;;31.83;18.23;;;;;;;;;;5016339;28;20208;-88
2021/12/28 01:53:11;;;;;;;38.97;13.77;;;;;;;;;;5017111;28;20229;-88
2021/12/28 01:55:40;;;;;;;25.97;13.03;;;;;;;;;;5016687;28;20292;-87
2021/12/28 01:58:10;;;;;;;26.33;12.80;;;;;;;;;;5016995;28;20214;-88
2021/12/28 02:00:40;;;;;;;22.43;14.43;;;;;;;;;;5016743;28;20210;-88
2021/12/28 02:03:09;;;;;;;38.97;17.90;;;;;;;;;;5016492;28;20262;-89
2021/12/28 02:05:38;;;;;;;29.10;15.33;;;;;;;;;;5016611;28;20229;-87
2021/12/28 02:08:07;;;;;;;24.20;11.60;;;;;;;;;;5016758;28;20217;-87
2021/12/28 02:10:36;;;;;;;24.53;9.07;;;;;;;;;;5016566;28;20268;-88
2021/12/28 02:13:06;;;;;;;28.83;14.27;;;;;;;;;;5016652;28;20206;-88
2021/12/28 02:15:36;;;;;;;33.83;17.47;;;;;;;;;;5016514;28;20237;-88
2021/12/28 02:18:06;;;;;;;34.23;16.23;;;;;;;;;;5016583;28;20205;-88
2021/12/28 02:20:36;;;;;;;35.37;15.10;;;;;;;;;;5015835;28;20256;-88
2021/12/28 02:23:06;;;;;;;22.13;10.40;;;;;;;;;;5016145;28;20261;-87
2021/12/28 02:25:35;;;;;;;27.63;13.43;;;;;;;;;;5015975;28;20283;-88
2021/12/28 02:28:07;;;;;;;33.57;16.13;;;;;;;;;;5015884;28;20240;-88
2021/12/28 02:30:36;;;;;;;29.33;14.67;;;;;;;;;;5015990;28;20303;-88
2021/12/28 02:33:05;;;;;;;28.70;14.07;;;;;;;;;;5016131;28;20218;-88
2021/12/28 02:35:35;;;;;;;33.07;16.37;;;;;;;;;;5015720;28;20230;-87
2021/12/28 02:38:05;;;;;;;29.10;14.67;;;;;;;;;;5015796;28;20225;-87
2021/12/28 02:40:34;;;;;;;28.57;15.27;;;;;;;;;;5016181;28;20255;-88
2021/12/28 02:43:04;;;;;;;19.33;9.67;;;;;;;;;;5015876;28;20202;-88
2021/12/28 02:45:34;;;;;;;23.63;11.97;;;;;;;;;;5015977;28;20233;-88
2021/12/28 02:48:03;;;;;;;21.00;9.47;;;;;;;;;;5016251;28;20214;-88
2021/12/28 02:50:33;;;;;;;17.60;8.67;;;;;;;;;;5015774;28;20294;-88
2021/12/28 02:53:04;;;;;;;14.70;7.63;;;;;;;;;;5015555;28;20214;-88
2021/12/28 02:55:34;;;;;;;25.83;10.27;;;;;;;;;;5015737;28;20216;-88
2021/12/28 02:58:03;;;;;;;24.43;11.50;;;;;;;;;;5015741;28;20210;-88
2021/12/28 03:00:34;;;;;;;35.57;14.07;;;;;;;;;;5015395;28;20233;-88
2021/12/28 03:03:05;;;;;;;31.20;12.60;;;;;;;;;;5014771;28;20234;-88
2021/12/28 03:05:34;;;;;;;24.97;11.67;;;;;;;;;;5015597;28;20214;-88
2021/12/28 03:08:04;;;;;;;18.77;8.37;;;;;;;;;;5015711;28;20210;-88
2021/12/28 03:10:33;;;;;;;28.23;11.30;;;;;;;;;;5015443;28;20214;-87
2021/12/28 03:13:01;;;;;;;23.07;10.77;;;;;;;;;;5015614;28;20257;-88
2021/12/28 03:15:30;;;;;;;24.23;9.73;;;;;;;;;;5015624;28;20210;-87
2021/12/28 03:17:58;;;;;;;33.80;12.03;;;;;;;;;;5015581;28;20256;-87
2021/12/28 03:20:27;;;;;;;26.03;12.57;;;;;;;;;;5015339;28;20213;-88
2021/12/28 03:22:56;;;;;;;21.90;7.77;;;;;;;;;;5015309;28;20262;-87
2021/12/28 03:25:26;;;;;;;19.23;7.77;;;;;;;;;;5014595;28;20205;-88
2021/12/28 03:27:56;;;;;;;27.13;9.40;;;;;;;;;;5014712;28;20247;-88
2021/12/28 03:30:29;;;;;;;24.33;8.87;;;;;;;;;;5014607;28;20201;-88
2021/12/28 03:32:58;;;;;;;29.13;10.50;;;;;;;;;;5014971;28;20241;-88
2021/12/28 03:35:26;;;;;;;23.20;7.97;;;;;;;;;;5015057;28;20233;-88
2021/12/28 03:37:57;;;;;;;20.70;8.10;;;;;;;;;;5015100;28;20202;-87
2021/12/28 03:40:28;;;;;;;23.00;7.83;;;;;;;;;;5014728;28;20205;-88
2021/12/28 03:42:56;;;;;;;18.20;7.73;;;;;;;;;;5015287;28;20222;-88
2021/12/28 03:45:25;;;;;;;22.80;7.80;;;;;;;;;;5014962;28;20212;-88
2021/12/28 03:47:54;;;;;;;23.40;8.70;;;;;;;;;;5014937;28;20259;-88
2021/12/28 03:50:25;;;;;;;18.93;7.63;;;;;;;;;;5014943;28;20201;-88
2021/12/28 03:52:54;;;;;;;21.37;7.97;;;;;;;;;;5003388;28;20217;-88
2021/12/28 03:55:23;;;;;;;21.57;9.33;;;;;;;;;;5009075;28;20229;-88
2021/12/28 03:57:53;;;;;;;21.63;7.43;;;;;;;;;;5014663;28;20205;-88
2021/12/28 04:00:23;;;;;;;23.07;9.10;;;;;;;;;;5014879;28;20262;-87
2021/12/28 04:02:51;;;;;;;17.87;6.80;;;;;;;;;;5014593;28;20233;-88
2021/12/28 04:05:20;;;;;;;29.63;7.30;;;;;;;;;;5014475;28;20252;-88
2021/12/28 04:07:49;;;;;;;15.57;5.67;;;;;;;;;;5014038;28;20260;-88
2021/12/28 04:10:19;;;;;;;18.93;6.03;;;;;;;;;;5014067;28;20214;-88
2021/12/28 04:12:47;;;;;;;18.70;8.50;;;;;;;;;;5014915;28;20206;-87
2021/12/28 04:15:17;;;;;;;11.00;4.73;;;;;;;;;;5014566;28;20271;-88
2021/12/28 04:17:45;;;;;;;24.67;9.47;;;;;;;;;;5014588;28;20210;-88
2021/12/28 04:20:15;;;;;;;18.73;6.40;;;;;;;;;;5014511;28;20206;-88
2021/12/28 04:22:44;;;;;;;20.97;8.80;;;;;;;;;;5014266;28;20233;-88
2021/12/28 04:25:14;;;;;;;29.67;8.37;;;;;;;;;;5014425;28;20260;-88
2021/12/28 04:27:43;;;;;;;22.50;6.27;;;;;;;;;;5013627;28;20236;-88
2021/12/28 04:30:13;;;;;;;21.50;6.90;;;;;;;;;;5014243;28;20227;-88
2021/12/28 04:32:44;;;;;;;30.07;8.13;;;;;;;;;;5014303;28;20246;-88
2021/12/28 04:35:13;;;;;;;24.57;10.33;;;;;;;;;;5014484;28;20206;-88
2021/12/28 04:37:41;;;;;;;27.60;10.87;;;;;;;;;;5013684;28;20205;-88
2021/12/28 04:40:11;;;;;;;22.30;9.57;;;;;;;;;;5014250;28;20213;-88
2021/12/28 04:42:41;;;;;;;16.63;6.67;;;;;;;;;;5014343;28;20242;-88
2021/12/28 04:45:10;;;;;;;24.87;8.83;;;;;;;;;;5014488;28;20236;-88
2021/12/28 04:47:39;;;;;;;37.00;11.00;;;;;;;;;;5014019;28;20237;-88
2021/12/28 04:50:11;;;;;;;13.80;5.70;;;;;;;;;;5013989;28;20245;-88
2021/12/28 04:52:40;;;;;;;15.57;6.37;;;;;;;;;;5013642;28;20203;-88
2021/12/28 04:55:10;;;;;;;28.90;11.10;;;;;;;;;;5014245;28;20212;-88
2021/12/28 04:57:39;;;;;;;28.50;11.03;;;;;;;;;;5014099;28;20191;-88
2021/12/28 05:00:09;;;;;;;20.17;9.63;;;;;;;;;;5013845;28;20273;-88
2021/12/28 05:02:37;;;;;;;15.50;7.60;;;;;;;;;;5013724;28;20202;-88
2021/12/28 05:05:12;;;;;;;29.57;10.87;;;;;;;;;;5013667;28;20214;-88
2021/12/28 05:07:41;;;;;;;19.43;9.40;;;;;;;;;;5013813;28;20232;-87
2021/12/28 05:10:11;;;;;;;20.97;9.37;;;;;;;;;;5013844;28;20232;-87
2021/12/28 05:12:40;;;;;;;12.43;7.30;;;;;;;;;;5013478;28;20275;-87
2021/12/28 05:15:10;;;;;;;28.10;11.37;;;;;;;;;;5013802;28;20214;-87
2021/12/28 05:17:39;;;;;;;22.10;9.23;;;;;;;;;;5013691;28;20209;-87
2021/12/28 05:20:09;;;;;;;10.60;3.47;;;;;;;;;;5013892;28;20209;-88
2021/12/28 05:22:39;;;;;;;19.67;10.60;;;;;;;;;;5013456;28;20205;-88
2021/12/28 05:25:08;;;;;;;28.20;10.20;;;;;;;;;;5015314;28;20208;-87
2021/12/28 05:27:37;;;;;;;27.63;12.57;;;;;;;;;;5017241;28;20316;-87
2021/12/28 05:30:07;;;;;;;25.27;8.60;;;;;;;;;;5017373;28;20219;-88
2021/12/28 05:32:36;;;;;;;23.60;9.73;;;;;;;;;;5017362;28;20210;-88
2021/12/28 05:35:05;;;;;;;23.73;12.60;;;;;;;;;;5017553;28;20252;-87
2021/12/28 05:37:35;;;;;;;24.53;10.43;;;;;;;;;;5017237;28;20188;-87
2021/12/28 05:40:06;;;;;;;28.93;11.47;;;;;;;;;;5016678;28;20210;-88
2021/12/28 05:42:35;;;;;;;21.97;8.97;;;;;;;;;;5017182;28;20209;-88
2021/12/28 05:45:04;;;;;;;14.83;5.67;;;;;;;;;;5016702;28;20213;-87
2021/12/28 05:47:33;;;;;;;20.67;8.53;;;;;;;;;;5016613;28;20317;-87
2021/12/28 05:50:01;;;;;;;9.37;6.23;;;;;;;;;;5017503;28;20205;-87
2021/12/28 05:52:30;;;;;;;20.67;9.80;;;;;;;;;;5016840;28;20330;-87
2021/12/28 05:54:58;;;;;;;18.10;8.33;;;;;;;;;;5016835;28;20213;-87
2021/12/28 05:57:30;;;;;;;19.20;8.23;;;;;;;;;;5016412;28;20234;-87
2021/12/28 05:59:58;;;;;;;24.10;9.77;;;;;;;;;;5016734;28;20201;-87
2021/12/28 06:02:27;;;;;;;17.70;8.43;;;;;;;;;;5016340;28;20217;-87
2021/12/28 06:04:56;;;;;;;28.33;9.97;;;;;;;;;;5016992;28;20218;-87
2021/12/28 06:07:27;;;;;;;22.50;8.47;;;;;;;;;;5016097;28;20304;-88
2021/12/28 06:09:56;;;;;;;24.33;9.10;;;;;;;;;;5016712;28;20211;-88
2021/12/28 06:12:25;;;;;;;15.00;7.70;;;;;;;;;;5016519;28;20209;-87
2021/12/28 06:14:55;;;;;;;21.67;9.10;;;;;;;;;;5016363;28;20207;-88
2021/12/28 06:17:25;;;;;;;31.93;13.17;;;;;;;;;;5016489;28;20234;-88
2021/12/28 06:19:54;;;;;;;34.33;13.10;;;;;;;;;;5016658;28;20206;-88
2021/12/28 06:22:22;;;;;;;26.07;13.03;;;;;;;;;;5016205;28;20268;-88
2021/12/28 06:24:52;;;;;;;21.90;13.17;;;;;;;;;;5016594;28;20214;-88
2021/12/28 06:27:20;;;;;;;28.20;15.57;;;;;;;;;;5016246;28;20272;-87
2021/12/28 06:29:49;;;;;;;21.83;11.27;;;;;;;;;;5016541;28;20201;-89
2021/12/28 06:32:19;;;;;;;23.50;16.23;;;;;;;;;;5016131;28;20205;-89
2021/12/28 06:34:47;;;;;;;27.80;14.23;;;;;;;;;;5016101;28;20202;-86
2021/12/28 06:37:15;;;;;;;31.43;16.93;;;;;;;;;;5014948;28;20269;-89
2021/12/28 06:39:44;;;;;;;30.70;20.73;;;;;;;;;;5016285;28;20221;-89
2021/12/28 06:42:13;;;;;;;25.23;13.57;;;;;;;;;;5015661;28;20240;-89
2021/12/28 06:44:44;;;;;;;25.77;14.90;;;;;;;;;;5016143;28;20206;-89
2021/12/28 06:47:12;;;;;;;32.90;19.20;;;;;;;;;;5015568;28;20215;-89
2021/12/28 06:49:42;;;;;;;34.20;17.20;;;;;;;;;;5015970;28;20218;-88
2021/12/28 06:52:10;;;;;;;29.53;18.20;;;;;;;;;;5015941;28;20213;-89
2021/12/28 06:54:39;;;;;;;34.10;19.10;;;;;;;;;;5016042;28;20212;-88
2021/12/28 06:57:08;;;;;;;30.67;16.30;;;;;;;;;;5015475;28;20235;-87
2021/12/28 06:59:41;;;;;;;23.60;13.23;;;;;;;;;;5016145;28;20239;-87
2021/12/28 07:02:11;;;;;;;26.20;16.33;;;;;;;;;;5015359;28;20214;-91
2021/12/28 07:04:43;;;;;;;31.27;18.23;;;;;;;;;;5007635;28;20224;-90
2021/12/28 07:07:12;;;;;;;31.60;16.35;;;;;;;;;;5015499;28;20199;-90
2021/12/28 07:09:41;;;;;;;24.23;15.00;;;;;;;;;;5015704;28;20264;-91
2021/12/28 07:12:10;;;;;;;20.10;13.80;;;;;;;;;;5015132;28;20201;-91
2021/12/28 07:14:39;;;;;;;25.90;14.67;;;;;;;;;;5015166;28;20217;-90
2021/12/28 07:17:08;;;;;;;27.53;17.17;;;;;;;;;;5015492;28;20207;-92
2021/12/28 07:19:37;;;;;;;30.10;19.23;;;;;;;;;;5015516;28;20209;-92
2021/12/28 07:22:07;;;;;;;27.03;18.10;;;;;;;;;;5015825;28;20282;-91
2021/12/28 07:24:37;;;;;;;26.03;17.77;;;;;;;;;;5015200;28;20213;-91
2021/12/28 07:27:06;;;;;;;28.77;19.90;;;;;;;;;;5015358;28;20198;-92
2021/12/28 07:29:35;;;;;;;37.83;20.97;;;;;;;;;;5015274;28;20229;-91
2021/12/28 07:32:09;;;;;;;34.47;24.00;;;;;;;;;;5014869;28;20213;-91
2021/12/28 07:34:38;;;;;;;34.63;22.13;;;;;;;;;;5015231;28;20240;-92
2021/12/28 07:37:08;;;;;;;34.40;23.87;;;;;;;;;;5015273;28;20218;-91
2021/12/28 07:39:37;;;;;;;34.97;20.37;;;;;;;;;;5015297;28;20202;-92
2021/12/28 14:16:58;;;;;;;5.00;2.40;;;;;;;;;;710785;23;20625;-85
2021/12/28 14:19:31;;;;;;;1.63;1.30;;;;;;;;;;4917110;29;20236;-87
2021/12/28 14:22:12;;;;;;;3.47;1.03;;;;;;;;;;4901076;29;20206;-86
2021/12/28 14:24:51;;;;;;;1.67;1.57;;;;;;;;;;4915432;29;20235;-86
2021/12/28 14:27:41;;;;;;;3.53;2.00;;;;;;;;;;4919472;29;20205;-87
2021/12/28 14:36:48;;;;;;;1.43;1.33;;;;;;;;;;4919516;29;20260;-86
2021/12/28 14:39:32;;;;;;;5.10;1.50;;;;;;;;;;4919031;29;20206;-86
2021/12/28 14:45:25;;;;;;;1.90;1.80;;;;;;;;;;4910112;29;20213;-86
2021/12/28 14:48:04;;;;;;;1.20;1.10;;;;;;;;;;4905548;29;20225;-85
2021/12/28 14:50:50;;;;;;;0.70;0.70;;;;;;;;;;4918406;29;20212;-86
2021/12/28 14:53:54;;;;;;;1.20;1.10;;;;;;;;;;4905365;29;20221;-86
2021/12/28 14:56:59;;;;;;;;;;;;;;;;;;;;;
2021/12/28 14:59:37;;;;;;;3.67;1.03;;;;;;;;;;4899636;29;20213;-86
2021/12/28 15:08:19;;;;;;;3.80;2.17;;;;;;;;;;4894627;29;20210;-87
2021/12/28 15:11:06;;;;;;;3.50;1.07;;;;;;;;;;4899359;29;20206;-87
2021/12/28 15:13:43;;;;;;;7.17;2.93;;;;;;;;;;4889920;29;20273;-88
2021/12/28 15:16:20;;;;;;;0.87;0.87;;;;;;;;;;4899241;29;20226;-87
2021/12/28 15:18:51;;;;;;;3.10;1.53;;;;;;;;;;4899516;29;20297;-86
2021/12/28 15:21:32;;;;;;;;;;;;;;;;;;;;;
2021/12/28 15:24:09;;;;;;;7.57;3.07;;;;;;;;;;4900285;29;20215;-86
2021/12/28 15:29:52;;;;;;;6.43;2.50;;;;;;;;;;4896895;29;20311;-87
2021/12/28 15:32:29;;;;;;;0.80;0.80;;;;;;;;;;4899678;29;20218;-85
2021/12/28 15:35:05;;;;;;;3.70;2.53;;;;;;;;;;4899625;29;20266;-86
2021/12/28 15:38:02;;;;;;;;;;;;;;;;;;;;;
2021/12/28 15:40:45;;;;;;;6.43;4.80;;;;;;;;;;4899789;29;20214;-86
2021/12/28 15:43:44;;;;;;;5.83;1.80;;;;;;;;;;4899726;29;20238;-86
2021/12/28 15:46:44;;;;;;;4.90;2.10;;;;;;;;;;4899919;29;20206;-87
2021/12/28 15:49:43;;;;;;;3.07;2.77;;;;;;;;;;4899111;29;20232;-88
2021/12/28 15:52:16;;;;;;;7.17;2.90;;;;;;;;;;4899793;29;20223;-88
2021/12/28 15:55:00;;;;;;;1.53;1.43;;;;;;;;;;4899077;29;20220;-87
2021/12/28 15:57:32;;;;;;;4.57;2.53;;;;;;;;;;4899634;29;20214;-88
2021/12/28 16:00:11;;;;;;;1.97;1.87;;;;;;;;;;4899526;29;20218;-88
2021/12/28 16:02:41;;;;;;;1.77;1.67;;;;;;;;;;4899516;29;20292;-88
2021/12/28 16:05:11;;;;;;;6.80;3.40;;;;;;;;;;4899258;29;20213;-88
2021/12/28 16:07:50;;;;;;;2.83;2.40;;;;;;;;;;4899878;29;20210;-86
2021/12/28 16:10:19;;;;;;;12.27;3.83;;;;;;;;;;4898801;29;20241;-87
2021/12/28 16:12:53;;;;;;;4.67;2.47;;;;;;;;;;4899402;29;20263;-87
2021/12/28 16:15:24;;;;;;;3.87;2.47;;;;;;;;;;4899183;29;20300;-88
2021/12/28 16:17:56;;;;;;;7.17;1.57;;;;;;;;;;4898637;29;20250;-88
2021/12/28 16:20:28;;;;;;;4.23;2.00;;;;;;;;;;4899351;29;20297;-87
2021/12/28 16:22:57;;;;;;;2.90;1.83;;;;;;;;;;4899253;29;20238;-88
2021/12/28 16:25:30;;;;;;;9.63;3.90;;;;;;;;;;4899173;29;20225;-88
2021/12/28 16:28:10;;;;;;;8.47;4.90;;;;;;;;;;4899360;29;20221;-88
2021/12/28 16:30:41;;;;;;;6.20;2.80;;;;;;;;;;4898825;29;20255;-88
2021/12/28 16:33:11;;;;;;;15.17;6.07;;;;;;;;;;4899281;29;20222;-87
2021/12/28 16:35:40;;;;;;;8.03;2.80;;;;;;;;;;4899054;29;20221;-87
2021/12/28 16:38:08;;;;;;;6.40;3.20;;;;;;;;;;4898950;29;20215;-87
2021/12/28 16:40:37;;;;;;;7.77;2.87;;;;;;;;;;4898663;29;20211;-86
2021/12/28 16:43:07;;;;;;;7.47;3.83;;;;;;;;;;4898864;29;20219;-87
2021/12/28 16:45:37;;;;;;;7.97;4.10;;;;;;;;;;4898641;29;20219;-88
2021/12/28 16:48:06;;;;;;;11.03;2.50;;;;;;;;;;4898516;29;20228;-88
2021/12/28 16:50:37;;;;;;;5.70;2.70;;;;;;;;;;4899041;29;20222;-87
2021/12/28 16:53:08;;;;;;;6.57;2.67;;;;;;;;;;4898814;29;20244;-88
2021/12/28 16:55:36;;;;;;;5.40;2.03;;;;;;;;;;4899146;29;20280;-87
2021/12/28 16:58:06;;;;;;;14.80;5.13;;;;;;;;;;4898598;29;20301;-87
2021/12/28 17:00:37;;;;;;;16.67;3.40;;;;;;;;;;4898865;29;20235;-87
2021/12/28 17:03:06;;;;;;;4.47;2.33;;;;;;;;;;4898948;29;20312;-88
2021/12/28 17:05:35;;;;;;;13.20;3.73;;;;;;;;;;4898550;29;20217;-88
2021/12/28 17:08:05;;;;;;;4.07;2.63;;;;;;;;;;4898374;29;20215;-88
2021/12/28 17:10:35;;;;;;;6.17;3.10;;;;;;;;;;4898227;29;20254;-87
2021/12/28 17:13:04;;;;;;;8.60;3.13;;;;;;;;;;4898651;29;20217;-88
2021/12/28 17:15:34;;;;;;;12.93;5.13;;;;;;;;;;4898653;29;20303;-88
2021/12/28 17:18:02;;;;;;;5.73;1.67;;;;;;;;;;4898468;29;20246;-87
2021/12/28 17:20:31;;;;;;;9.60;3.13;;;;;;;;;;4898690;29;20219;-88
2021/12/28 17:22:59;;;;;;;6.50;4.10;;;;;;;;;;4902047;29;20211;-88
2021/12/28 17:25:28;;;;;;;15.63;6.80;;;;;;;;;;4902084;29;20202;-87
2021/12/28 17:27:56;;;;;;;13.40;4.53;;;;;;;;;;4902117;29;20255;-87
2021/12/28 17:30:25;;;;;;;16.70;9.57;;;;;;;;;;4901690;29;20322;-85
2021/12/28 17:32:55;;;;;;;11.07;4.20;;;;;;;;;;4902105;29;20214;-87
2021/12/28 17:35:24;;;;;;;7.43;3.23;;;;;;;;;;4901807;29;20269;-87
2021/12/28 17:37:53;;;;;;;8.90;3.63;;;;;;;;;;4901544;29;20202;-86
2021/12/28 17:40:21;;;;;;;15.30;7.20;;;;;;;;;;4901951;29;20203;-86
2021/12/28 17:42:49;;;;;;;4.90;2.60;;;;;;;;;;4901473;29;20210;-86
2021/12/28 17:45:23;;;;;;;15.00;5.07;;;;;;;;;;4901286;29;20276;-86
2021/12/28 17:47:52;;;;;;;17.60;7.17;;;;;;;;;;4901655;29;20207;-87
2021/12/28 17:50:24;;;;;;;7.30;3.63;;;;;;;;;;4901526;29;20325;-87
2021/12/28 17:52:53;;;;;;;7.17;4.83;;;;;;;;;;4901384;29;20243;-87
2021/12/28 17:55:22;;;;;;;4.73;2.43;;;;;;;;;;4901093;29;20225;-87
2021/12/28 17:57:51;;;;;;;9.60;4.17;;;;;;;;;;4901083;29;20213;-88
2021/12/28 18:00:29;;;;;;;10.90;4.13;;;;;;;;;;4906470;29;20202;-87
2021/12/28 18:02:58;;;;;;;11.37;5.30;;;;;;;;;;4920429;29;20262;-88
2021/12/28 18:05:28;;;;;;;4.20;3.80;;;;;;;;;;4920093;29;20213;-88
2021/12/28 18:07:57;;;;;;;2.40;2.07;;;;;;;;;;4920142;29;20224;-87
2021/12/28 18:10:25;;;;;;;5.17;2.80;;;;;;;;;;4920068;29;20298;-88
2021/12/28 18:12:54;;;;;;;2.00;1.80;;;;;;;;;;4919972;29;20214;-87
2021/12/28 18:15:23;;;;;;;3.60;1.93;;;;;;;;;;4919890;29;20243;-87
2021/12/28 18:17:51;;;;;;;6.77;2.13;;;;;;;;;;4920061;29;20249;-87
2021/12/28 18:20:20;;;;;;;4.87;2.13;;;;;;;;;;4920080;29;20241;-87
2021/12/28 18:22:52;;;;;;;1.97;1.17;;;;;;;;;;4906798;29;20221;-87
2021/12/28 18:25:21;;;;;;;3.43;2.77;;;;;;;;;;4900862;29;20206;-87
2021/12/28 18:27:50;;;;;;;1.83;1.40;;;;;;;;;;4900828;29;20294;-87
2021/12/28 18:30:20;;;;;;;1.90;1.27;;;;;;;;;;4901060;29;20317;-87
2021/12/28 18:32:50;;;;;;;1.53;1.43;;;;;;;;;;4900805;29;20214;-87
2021/12/28 18:35:18;;;;;;;3.40;1.80;;;;;;;;;;4900747;29;20233;-87
2021/12/28 18:37:47;;;;;;;8.47;2.47;;;;;;;;;;4900871;29;20320;-87
2021/12/28 18:40:18;;;;;;;6.97;2.93;;;;;;;;;;4900520;29;20237;-87
2021/12/28 18:42:46;;;;;;;3.90;1.87;;;;;;;;;;4900330;29;20194;-87
2021/12/28 18:45:15;;;;;;;2.43;2.23;;;;;;;;;;4900456;29;20245;-87
2021/12/28 18:47:43;;;;;;;5.17;2.37;;;;;;;;;;4900309;29;20303;-87
2021/12/28 18:50:16;;;;;;;3.37;1.87;;;;;;;;;;4900296;29;20212;-87
2021/12/28 18:52:44;;;;;;;5.93;1.83;;;;;;;;;;4900296;29;20252;-86
2021/12/28 18:55:13;;;;;;;4.70;2.40;;;;;;;;;;4900296;29;20243;-86
2021/12/28 18:57:43;;;;;;;2.43;1.60;;;;;;;;;;4900633;29;20243;-87
2021/12/28 19:00:13;;;;;;;2.93;1.57;;;;;;;;;;4900371;29;20198;-87
2021/12/28 19:02:41;;;;;;;7.87;2.30;;;;;;;;;;4899977;29;20211;-87
2021/12/28 19:05:10;;;;;;;6.03;3.03;;;;;;;;;;4900168;29;20212;-87
2021/12/28 19:07:40;;;;;;;4.33;2.27;;;;;;;;;;4900419;29;20214;-87
2021/12/28 19:10:09;;;;;;;3.93;2.30;;;;;;;;;;4899756;29;20234;-87
2021/12/28 19:12:38;;;;;;;7.53;3.30;;;;;;;;;;4899738;29;20234;-87
2021/12/28 19:15:09;;;;;;;9.00;1.97;;;;;;;;;;4900190;29;20216;-87
2021/12/28 19:17:38;;;;;;;10.47;2.60;;;;;;;;;;4899912;29;20353;-87
2021/12/28 19:20:07;;;;;;;11.47;3.97;;;;;;;;;;4899893;29;20269;-87
2021/12/28 19:22:36;;;;;;;3.70;2.57;;;;;;;;;;4899784;29;20247;-87
2021/12/28 19:25:05;;;;;;;6.77;2.63;;;;;;;;;;4900143;29;20209;-87
2021/12/28 19:27:34;;;;;;;9.40;3.73;;;;;;;;;;4899881;29;20213;-87
2021/12/28 19:30:02;;;;;;;6.47;2.57;;;;;;;;;;4899619;29;20276;-87
2021/12/28 19:32:32;;;;;;;3.70;2.00;;;;;;;;;;4899203;29;20233;-87
2021/12/28 19:35:00;;;;;;;12.00;2.63;;;;;;;;;;4899555;29;20248;-87
2021/12/28 19:37:29;;;;;;;8.33;2.73;;;;;;;;;;4899868;29;20216;-88
2021/12/28 19:39:57;;;;;;;2.53;1.60;;;;;;;;;;4899375;29;20213;-88
2021/12/28 19:42:26;;;;;;;4.03;1.63;;;;;;;;;;4899609;29;20207;-87
2021/12/28 19:44:54;;;;;;;9.70;3.33;;;;;;;;;;4899083;29;20210;-87
2021/12/28 19:47:23;;;;;;;3.70;1.53;;;;;;;;;;4899377;29;20207;-88
2021/12/28 19:49:53;;;;;;;4.70;2.63;;;;;;;;;;4899164;29;20214;-88
2021/12/28 19:52:22;;;;;;;2.50;2.10;;;;;;;;;;4899464;29;20234;-88
2021/12/28 19:54:51;;;;;;;5.93;2.57;;;;;;;;;;4899473;29;20266;-88
2021/12/28 19:57:19;;;;;;;1.70;1.60;;;;;;;;;;4899228;29;20282;-88
2021/12/28 19:59:47;;;;;;;2.00;1.33;;;;;;;;;;4899454;29;20226;-88
2021/12/28 20:02:16;;;;;;;3.90;1.70;;;;;;;;;;4899113;29;20214;-88
2021/12/28 20:04:45;;;;;;;1.43;1.33;;;;;;;;;;4899237;29;20226;-88
2021/12/28 20:07:15;;;;;;;3.73;2.93;;;;;;;;;;4899243;29;20228;-88
2021/12/28 20:09:45;;;;;;;4.77;2.13;;;;;;;;;;4899278;29;20205;-88
2021/12/28 20:12:13;;;;;;;7.10;2.70;;;;;;;;;;4899177;29;20234;-87
2021/12/28 20:14:43;;;;;;;9.93;3.57;;;;;;;;;;4898766;29;20300;-88
2021/12/28 20:17:11;;;;;;;11.83;3.20;;;;;;;;;;4898925;29;20207;-88
2021/12/28 20:19:40;;;;;;;3.60;1.73;;;;;;;;;;4898647;29;20280;-88
2021/12/28 20:22:09;;;;;;;4.30;3.00;;;;;;;;;;4899148;29;20290;-88
2021/12/28 20:24:39;;;;;;;2.30;2.10;;;;;;;;;;4899087;29;20242;-88
2021/12/28 20:27:08;;;;;;;16.10;4.67;;;;;;;;;;4898904;29;20226;-88
2021/12/28 20:29:37;;;;;;;2.93;2.33;;;;;;;;;;4898828;29;20211;-88
2021/12/28 20:32:06;;;;;;;5.73;3.60;;;;;;;;;;4898749;29;20297;-88
2021/12/28 20:34:34;;;;;;;16.30;5.07;;;;;;;;;;4898704;29;20252;-88
2021/12/28 20:37:02;;;;;;;5.87;2.83;;;;;;;;;;4899074;29;20234;-87
2021/12/28 20:39:31;;;;;;;10.70;4.33;;;;;;;;;;4898664;29;20268;-88
2021/12/28 20:42:04;;;;;;;8.40;2.53;;;;;;;;;;4898732;29;20217;-86
2021/12/28 20:44:32;;;;;;;9.20;4.50;;;;;;;;;;4898572;29;20235;-88
2021/12/28 20:47:01;;;;;;;7.77;3.83;;;;;;;;;;4898548;29;20244;-88
2021/12/28 20:49:29;;;;;;;8.40;2.90;;;;;;;;;;4898856;29;20223;-88
2021/12/28 20:51:58;;;;;;;13.47;4.47;;;;;;;;;;4898728;29;20225;-88
2021/12/28 20:54:46;;;;;;;5.37;2.57;;;;;;;;;;4898864;29;20194;-88
2021/12/28 20:57:16;;;;;;;7.90;2.50;;;;;;;;;;4901688;29;20211;-88
2021/12/28 20:59:45;;;;;;;10.57;2.50;;;;;;;;;;4902603;29;20262;-88
2021/12/28 21:02:16;;;;;;;13.37;3.10;;;;;;;;;;4902408;29;20201;-88
2021/12/28 21:04:46;;;;;;;10.27;5.93;;;;;;;;;;4902659;29;20230;-88
2021/12/28 21:07:15;;;;;;;10.40;2.80;;;;;;;;;;4902593;29;20240;-88
2021/12/28 21:09:43;;;;;;;5.80;1.77;;;;;;;;;;4902433;29;20241;-88
2021/12/28 21:12:13;;;;;;;5.67;2.20;;;;;;;;;;4902420;29;20257;-88
2021/12/28 21:14:43;;;;;;;8.83;3.80;;;;;;;;;;4902479;29;20222;-88
2021/12/28 21:17:12;;;;;;;6.67;2.87;;;;;;;;;;4902169;29;20234;-88
2021/12/28 21:19:40;;;;;;;2.37;1.47;;;;;;;;;;4902014;29;20276;-88
2021/12/28 21:22:08;;;;;;;7.47;2.60;;;;;;;;;;4902027;29;20228;-88
2021/12/28 21:24:50;;;;;;;5.43;2.43;;;;;;;;;;4902234;29;20217;-88
2021/12/28 21:27:19;;;;;;;8.00;3.77;;;;;;;;;;4902206;29;20226;-88
2021/12/28 21:29:48;;;;;;;6.10;1.73;;;;;;;;;;4901836;29;20246;-88
2021/12/28 21:32:18;;;;;;;12.77;4.83;;;;;;;;;;4902110;29;20265;-88
2021/12/28 21:34:47;;;;;;;7.40;2.17;;;;;;;;;;4902352;29;20205;-88
2021/12/28 21:37:16;;;;;;;6.57;2.97;;;;;;;;;;4902045;29;20206;-88
2021/12/28 21:39:44;;;;;;;10.77;4.77;;;;;;;;;;4901979;29;20262;-89
2021/12/28 21:42:13;;;;;;;13.90;4.37;;;;;;;;;;4901707;29;20210;-88
2021/12/28 21:44:42;;;;;;;15.43;3.63;;;;;;;;;;4902016;29;20286;-88
2021/12/28 21:47:13;;;;;;;11.37;3.37;;;;;;;;;;4901996;29;20236;-87